KPEA

Details ICAO KPEA
Name PELLA MUNI
Region United States
Timezone America/Chicago (UTC-6.0)
Plans Departing 14
Arriving 6
Stats Elevation 885 ft / 270 m (AMSL)
Location 41.401221° -92.945865°
Runways 1
Magnetic Variation 0.298° E
Sunrise 2017-12-11 13:29:29 UTC / 2017-12-11 07:29:29 Local
Sunset 2017-12-11 22:43:44 UTC / 2017-12-11 16:43:44 Local
Advertisement - Login to hide

Runways

ID Width Length Bearing (true) Bearing (mag) Surface Threshold Offset Overrun Length
16 75 ft / 23 m 5,408 ft / 1,648 m 167.50° 167.20° Concrete 200 ft / 61 m 0 ft / 0 m
34 75 ft / 23 m 5,408 ft / 1,648 m 347.51° 347.21° Concrete 200 ft / 61 m 0 ft / 0 m

Map

Weather


0- 5 10 15 20 25 30 35+ Temperature / ° C

Clouds and Precipitation
Forecast for 2017-12-12 00:00 UTC. Updated 5 minutes ago

Ground ~20,000 ft ~40,000 ft Winds

METAR

KPEA 112315Z AUTO 33021G31KT 10SM OVC020 04/00 A2999 RMK AO2 T00371003

TAF

Not found

Frequencies

Recorded 118.87 MHz AWOS 3
Approach 123.90 MHz DES MOINES APP/DEP
Unicom 122.80 MHz CTAF/UNICOM
Warning: Do not use this data for real-world aviation or navigation. No guarantee of current accuracy is given.